Forside
METAR-TAF:

METAR-TAF

Lufthavne :

Logan County Airport

Lincoln, Illinois, USA

Breddekreds: 40-09-31N, længdekreds: 089-20-06W, højde: 182 m

Aktuelle vejr

Denne rapport blev lavet for 21 minutter siden, kl. 15:35 UTC
Vind 9 kt fra nord
Temperatur 11°C
Fugtighed 50%
Tryk 1027 hPa
Sigt: 16.1 km
skyfri

METAR: KAAA 231535Z AUTO 01009KT 10SM CLR 11/01 A3033 RMK AO2 T01070005

Tid: 10:56 (15:56 UTC)


TAF: fraværende

Vejrobservationer og prognoser fra mere end 4000 lufthavne (METAR og TAF).

De gule og røde prikker repræsenterer de meteorologiske stationer.

Flyt musen over at se navnet på stationen.

Så klik over at se vejr observationer og prognoser.

At skifte det kort: Klik på de grønne knapper med et sort kors for at zoome ind; på den grønne knap med en bindestreg for at zoome ud; eller på de grønne pile for tilstødende kort.


METAR-TAF: